sensor_id;sensor_type;location;lat;lon;timestamp;P1;durP1;ratioP1;P2;durP2;ratioP2
56381;SDS011;74506;51.150;4.470;2023-12-14T00:01:33;32.50;;;18.48;;
56381;SDS011;74506;51.150;4.470;2023-12-14T00:03:58;35.90;;;20.52;;
56381;SDS011;74506;51.150;4.470;2023-12-14T00:06:24;37.90;;;20.10;;
56381;SDS011;74506;51.150;4.470;2023-12-14T00:08:50;36.67;;;19.35;;
56381;SDS011;74506;51.150;4.470;2023-12-14T00:11:15;36.20;;;19.77;;
56381;SDS011;74506;51.150;4.470;2023-12-14T00:13:41;38.03;;;20.42;;
56381;SDS011;74506;51.150;4.470;2023-12-14T00:16:07;37.53;;;19.38;;
56381;SDS011;74506;51.150;4.470;2023-12-14T00:18:33;37.33;;;20.50;;
56381;SDS011;74506;51.150;4.470;2023-12-14T00:20:59;32.08;;;18.05;;
56381;SDS011;74506;51.150;4.470;2023-12-14T00:23:25;34.63;;;19.17;;
56381;SDS011;74506;51.150;4.470;2023-12-14T00:25:50;32.75;;;18.48;;
56381;SDS011;74506;51.150;4.470;2023-12-14T00:28:16;32.42;;;18.42;;
56381;SDS011;74506;51.150;4.470;2023-12-14T00:30:42;31.38;;;17.63;;
56381;SDS011;74506;51.150;4.470;2023-12-14T00:33:08;29.77;;;17.00;;
56381;SDS011;74506;51.150;4.470;2023-12-14T00:35:34;31.58;;;17.38;;
56381;SDS011;74506;51.150;4.470;2023-12-14T00:37:59;31.35;;;16.92;;
56381;SDS011;74506;51.150;4.470;2023-12-14T00:40:25;30.52;;;16.92;;
56381;SDS011;74506;51.150;4.470;2023-12-14T00:42:51;31.23;;;16.15;;
56381;SDS011;74506;51.150;4.470;2023-12-14T00:45:16;28.33;;;16.20;;
56381;SDS011;74506;51.150;4.470;2023-12-14T00:47:42;26.75;;;15.00;;
56381;SDS011;74506;51.150;4.470;2023-12-14T00:50:07;24.63;;;13.73;;
56381;SDS011;74506;51.150;4.470;2023-12-14T00:52:33;23.58;;;13.60;;
56381;SDS011;74506;51.150;4.470;2023-12-14T00:54:59;21.13;;;12.10;;
56381;SDS011;74506;51.150;4.470;2023-12-14T00:57:25;18.27;;;10.48;;
56381;SDS011;74506;51.150;4.470;2023-12-14T00:59:50;20.10;;;10.80;;
56381;SDS011;74506;51.150;4.470;2023-12-14T01:02:16;17.48;;;10.07;;
56381;SDS011;74506;51.150;4.470;2023-12-14T01:04:41;20.30;;;10.60;;
56381;SDS011;74506;51.150;4.470;2023-12-14T01:07:08;16.40;;;9.00;;
56381;SDS011;74506;51.150;4.470;2023-12-14T01:09:33;18.27;;;10.05;;
56381;SDS011;74506;51.150;4.470;2023-12-14T01:11:59;15.23;;;9.13;;
56381;SDS011;74506;51.150;4.470;2023-12-14T01:14:25;16.20;;;9.30;;
56381;SDS011;74506;51.150;4.470;2023-12-14T01:16:50;18.02;;;9.57;;
56381;SDS011;74506;51.150;4.470;2023-12-14T01:19:16;16.45;;;9.80;;
56381;SDS011;74506;51.150;4.470;2023-12-14T01:21:42;20.83;;;10.48;;
56381;SDS011;74506;51.150;4.470;2023-12-14T01:24:08;17.13;;;10.40;;
56381;SDS011;74506;51.150;4.470;2023-12-14T01:26:33;20.83;;;10.52;;
56381;SDS011;74506;51.150;4.470;2023-12-14T01:28:59;21.33;;;10.38;;
56381;SDS011;74506;51.150;4.470;2023-12-14T01:31:25;18.60;;;9.93;;
56381;SDS011;74506;51.150;4.470;2023-12-14T01:33:51;22.05;;;10.35;;
56381;SDS011;74506;51.150;4.470;2023-12-14T01:36:22;18.85;;;10.32;;
56381;SDS011;74506;51.150;4.470;2023-12-14T01:38:48;17.67;;;9.55;;
56381;SDS011;74506;51.150;4.470;2023-12-14T01:41:14;17.85;;;9.98;;
56381;SDS011;74506;51.150;4.470;2023-12-14T01:43:40;19.60;;;10.70;;
56381;SDS011;74506;51.150;4.470;2023-12-14T01:46:05;20.33;;;10.75;;
56381;SDS011;74506;51.150;4.470;2023-12-14T01:48:31;16.60;;;10.20;;
56381;SDS011;74506;51.150;4.470;2023-12-14T01:50:57;17.08;;;10.43;;
56381;SDS011;74506;51.150;4.470;2023-12-14T01:53:22;20.38;;;10.60;;
56381;SDS011;74506;51.150;4.470;2023-12-14T01:55:48;19.92;;;10.07;;
56381;SDS011;74506;51.150;4.470;2023-12-14T01:58:14;17.55;;;9.90;;
56381;SDS011;74506;51.150;4.470;2023-12-14T02:00:42;18.80;;;10.45;;
56381;SDS011;74506;51.150;4.470;2023-12-14T02:03:09;17.25;;;10.57;;
56381;SDS011;74506;51.150;4.470;2023-12-14T02:05:35;22.88;;;11.02;;
56381;SDS011;74506;51.150;4.470;2023-12-14T02:08:01;19.45;;;10.45;;
56381;SDS011;74506;51.150;4.470;2023-12-14T02:10:27;18.13;;;9.95;;
56381;SDS011;74506;51.150;4.470;2023-12-14T02:12:53;18.90;;;10.82;;
56381;SDS011;74506;51.150;4.470;2023-12-14T02:15:18;15.57;;;9.45;;
56381;SDS011;74506;51.150;4.470;2023-12-14T02:17:44;17.15;;;10.00;;
56381;SDS011;74506;51.150;4.470;2023-12-14T02:20:10;15.82;;;9.57;;
56381;SDS011;74506;51.150;4.470;2023-12-14T02:22:47;16.23;;;9.13;;
56381;SDS011;74506;51.150;4.470;2023-12-14T02:25:14;17.23;;;9.20;;
56381;SDS011;74506;51.150;4.470;2023-12-14T02:27:40;16.83;;;8.90;;
56381;SDS011;74506;51.150;4.470;2023-12-14T02:30:06;13.25;;;7.90;;
56381;SDS011;74506;51.150;4.470;2023-12-14T02:32:32;12.93;;;6.95;;
56381;SDS011;74506;51.150;4.470;2023-12-14T02:34:57;11.52;;;6.78;;
56381;SDS011;74506;51.150;4.470;2023-12-14T02:37:23;10.32;;;6.18;;
56381;SDS011;74506;51.150;4.470;2023-12-14T02:39:48;9.55;;;5.70;;
56381;SDS011;74506;51.150;4.470;2023-12-14T02:42:14;9.55;;;5.47;;
56381;SDS011;74506;51.150;4.470;2023-12-14T02:44:40;9.77;;;6.13;;
56381;SDS011;74506;51.150;4.470;2023-12-14T02:47:05;11.02;;;6.82;;
56381;SDS011;74506;51.150;4.470;2023-12-14T02:49:31;10.80;;;6.80;;
56381;SDS011;74506;51.150;4.470;2023-12-14T02:51:57;10.07;;;6.85;;
56381;SDS011;74506;51.150;4.470;2023-12-14T02:54:23;12.63;;;7.50;;
56381;SDS011;74506;51.150;4.470;2023-12-14T02:56:49;12.63;;;7.68;;
56381;SDS011;74506;51.150;4.470;2023-12-14T02:59:14;12.23;;;7.47;;
56381;SDS011;74506;51.150;4.470;2023-12-14T03:01:40;16.25;;;9.02;;
56381;SDS011;74506;51.150;4.470;2023-12-14T03:04:06;14.02;;;9.02;;
56381;SDS011;74506;51.150;4.470;2023-12-14T03:06:32;12.73;;;8.65;;
56381;SDS011;74506;51.150;4.470;2023-12-14T03:08:57;14.88;;;8.63;;
56381;SDS011;74506;51.150;4.470;2023-12-14T03:11:23;15.60;;;9.57;;
56381;SDS011;74506;51.150;4.470;2023-12-14T03:13:49;16.50;;;10.32;;
56381;SDS011;74506;51.150;4.470;2023-12-14T03:16:14;15.07;;;9.98;;
56381;SDS011;74506;51.150;4.470;2023-12-14T03:18:42;15.77;;;10.68;;
56381;SDS011;74506;51.150;4.470;2023-12-14T03:21:09;16.23;;;10.45;;
56381;SDS011;74506;51.150;4.470;2023-12-14T03:23:34;16.13;;;10.88;;
56381;SDS011;74506;51.150;4.470;2023-12-14T03:26:00;16.67;;;10.27;;
56381;SDS011;74506;51.150;4.470;2023-12-14T03:28:26;15.52;;;9.88;;
56381;SDS011;74506;51.150;4.470;2023-12-14T03:30:52;13.88;;;9.40;;
56381;SDS011;74506;51.150;4.470;2023-12-14T03:33:17;14.57;;;10.20;;
56381;SDS011;74506;51.150;4.470;2023-12-14T03:35:43;14.57;;;9.38;;
56381;SDS011;74506;51.150;4.470;2023-12-14T03:38:09;13.07;;;8.52;;
56381;SDS011;74506;51.150;4.470;2023-12-14T03:40:35;11.90;;;8.73;;
56381;SDS011;74506;51.150;4.470;2023-12-14T03:43:01;12.57;;;8.30;;
56381;SDS011;74506;51.150;4.470;2023-12-14T03:45:28;10.23;;;8.27;;
56381;SDS011;74506;51.150;4.470;2023-12-14T03:47:54;11.32;;;8.15;;
56381;SDS011;74506;51.150;4.470;2023-12-14T03:50:20;12.98;;;8.40;;
56381;SDS011;74506;51.150;4.470;2023-12-14T03:52:45;13.13;;;8.52;;
56381;SDS011;74506;51.150;4.470;2023-12-14T03:55:11;11.90;;;8.40;;
56381;SDS011;74506;51.150;4.470;2023-12-14T03:57:37;11.10;;;7.93;;
56381;SDS011;74506;51.150;4.470;2023-12-14T04:00:03;11.90;;;8.10;;
56381;SDS011;74506;51.150;4.470;2023-12-14T04:02:30;12.30;;;7.90;;
56381;SDS011;74506;51.150;4.470;2023-12-14T04:04:56;13.68;;;8.13;;
56381;SDS011;74506;51.150;4.470;2023-12-14T04:07:21;11.00;;;8.20;;
56381;SDS011;74506;51.150;4.470;2023-12-14T04:09:47;12.55;;;8.15;;
56381;SDS011;74506;51.150;4.470;2023-12-14T04:12:14;11.35;;;8.23;;
56381;SDS011;74506;51.150;4.470;2023-12-14T04:14:39;12.27;;;8.68;;
56381;SDS011;74506;51.150;4.470;2023-12-14T04:17:05;11.68;;;7.90;;
56381;SDS011;74506;51.150;4.470;2023-12-14T04:19:31;10.45;;;8.27;;
56381;SDS011;74506;51.150;4.470;2023-12-14T04:21:56;12.93;;;8.70;;
56381;SDS011;74506;51.150;4.470;2023-12-14T04:24:22;12.73;;;8.63;;
56381;SDS011;74506;51.150;4.470;2023-12-14T04:26:48;14.52;;;9.43;;
56381;SDS011;74506;51.150;4.470;2023-12-14T04:29:13;13.52;;;9.30;;
56381;SDS011;74506;51.150;4.470;2023-12-14T04:31:39;13.13;;;8.63;;
56381;SDS011;74506;51.150;4.470;2023-12-14T04:34:05;12.23;;;9.27;;
56381;SDS011;74506;51.150;4.470;2023-12-14T04:36:30;14.43;;;9.52;;
56381;SDS011;74506;51.150;4.470;2023-12-14T04:38:56;14.20;;;9.30;;
56381;SDS011;74506;51.150;4.470;2023-12-14T04:41:22;12.30;;;9.80;;
56381;SDS011;74506;51.150;4.470;2023-12-14T04:43:47;11.20;;;8.73;;
56381;SDS011;74506;51.150;4.470;2023-12-14T04:46:13;14.20;;;9.43;;
56381;SDS011;74506;51.150;4.470;2023-12-14T04:48:38;12.80;;;8.30;;
56381;SDS011;74506;51.150;4.470;2023-12-14T04:51:04;11.00;;;7.90;;
56381;SDS011;74506;51.150;4.470;2023-12-14T04:53:30;13.30;;;8.85;;
56381;SDS011;74506;51.150;4.470;2023-12-14T04:55:55;11.85;;;8.18;;
56381;SDS011;74506;51.150;4.470;2023-12-14T04:58:21;11.45;;;8.65;;
56381;SDS011;74506;51.150;4.470;2023-12-14T05:00:47;12.90;;;8.80;;
56381;SDS011;74506;51.150;4.470;2023-12-14T05:03:13;13.70;;;8.57;;
56381;SDS011;74506;51.150;4.470;2023-12-14T05:05:38;10.95;;;8.57;;
56381;SDS011;74506;51.150;4.470;2023-12-14T05:08:04;11.07;;;8.27;;
56381;SDS011;74506;51.150;4.470;2023-12-14T05:10:30;11.70;;;8.32;;
56381;SDS011;74506;51.150;4.470;2023-12-14T05:12:55;12.23;;;8.70;;
56381;SDS011;74506;51.150;4.470;2023-12-14T05:15:21;12.93;;;8.38;;
56381;SDS011;74506;51.150;4.470;2023-12-14T05:17:47;11.95;;;8.38;;
56381;SDS011;74506;51.150;4.470;2023-12-14T05:20:12;13.15;;;8.50;;
56381;SDS011;74506;51.150;4.470;2023-12-14T05:22:38;10.95;;;7.82;;
56381;SDS011;74506;51.150;4.470;2023-12-14T05:25:04;11.75;;;7.90;;
56381;SDS011;74506;51.150;4.470;2023-12-14T05:27:29;13.27;;;8.02;;
56381;SDS011;74506;51.150;4.470;2023-12-14T05:29:55;12.65;;;7.93;;
56381;SDS011;74506;51.150;4.470;2023-12-14T05:32:21;11.07;;;7.93;;
56381;SDS011;74506;51.150;4.470;2023-12-14T05:34:46;11.95;;;8.40;;
56381;SDS011;74506;51.150;4.470;2023-12-14T05:37:13;15.98;;;8.75;;
56381;SDS011;74506;51.150;4.470;2023-12-14T05:39:40;11.65;;;8.85;;
56381;SDS011;74506;51.150;4.470;2023-12-14T05:42:06;11.48;;;8.52;;
56381;SDS011;74506;51.150;4.470;2023-12-14T05:44:32;14.68;;;8.77;;
56381;SDS011;74506;51.150;4.470;2023-12-14T05:46:57;13.43;;;8.90;;
56381;SDS011;74506;51.150;4.470;2023-12-14T05:49:23;16.40;;;8.82;;
56381;SDS011;74506;51.150;4.470;2023-12-14T05:51:49;11.68;;;8.73;;
56381;SDS011;74506;51.150;4.470;2023-12-14T05:54:14;13.20;;;8.40;;
56381;SDS011;74506;51.150;4.470;2023-12-14T05:56:40;13.82;;;8.60;;
56381;SDS011;74506;51.150;4.470;2023-12-14T05:59:06;13.15;;;7.97;;
56381;SDS011;74506;51.150;4.470;2023-12-14T06:01:32;13.15;;;8.35;;
56381;SDS011;74506;51.150;4.470;2023-12-14T06:03:57;16.05;;;8.13;;
56381;SDS011;74506;51.150;4.470;2023-12-14T06:06:23;12.85;;;8.25;;
56381;SDS011;74506;51.150;4.470;2023-12-14T06:08:49;13.52;;;8.45;;
56381;SDS011;74506;51.150;4.470;2023-12-14T06:11:15;12.07;;;7.88;;
56381;SDS011;74506;51.150;4.470;2023-12-14T06:13:40;12.57;;;8.48;;
56381;SDS011;74506;51.150;4.470;2023-12-14T06:16:06;13.57;;;7.45;;
56381;SDS011;74506;51.150;4.470;2023-12-14T06:18:38;13.43;;;7.65;;
56381;SDS011;74506;51.150;4.470;2023-12-14T06:21:06;14.90;;;8.40;;
56381;SDS011;74506;51.150;4.470;2023-12-14T06:23:32;13.75;;;7.78;;
56381;SDS011;74506;51.150;4.470;2023-12-14T06:25:57;13.95;;;7.45;;
56381;SDS011;74506;51.150;4.470;2023-12-14T06:28:24;13.10;;;7.55;;
56381;SDS011;74506;51.150;4.470;2023-12-14T06:30:49;15.18;;;7.88;;
56381;SDS011;74506;51.150;4.470;2023-12-14T06:33:15;13.65;;;7.00;;
56381;SDS011;74506;51.150;4.470;2023-12-14T06:35:40;12.45;;;7.63;;
56381;SDS011;74506;51.150;4.470;2023-12-14T06:38:06;9.52;;;6.53;;
56381;SDS011;74506;51.150;4.470;2023-12-14T06:40:32;11.20;;;7.10;;
56381;SDS011;74506;51.150;4.470;2023-12-14T06:42:57;10.68;;;6.70;;
56381;SDS011;74506;51.150;4.470;2023-12-14T06:45:23;13.07;;;6.70;;
56381;SDS011;74506;51.150;4.470;2023-12-14T06:47:48;14.13;;;6.72;;
56381;SDS011;74506;51.150;4.470;2023-12-14T06:50:15;9.82;;;6.60;;
56381;SDS011;74506;51.150;4.470;2023-12-14T06:52:40;11.95;;;6.53;;
56381;SDS011;74506;51.150;4.470;2023-12-14T06:55:06;14.93;;;8.45;;
56381;SDS011;74506;51.150;4.470;2023-12-14T06:57:32;16.23;;;7.45;;
56381;SDS011;74506;51.150;4.470;2023-12-14T06:59:57;14.93;;;7.32;;
56381;SDS011;74506;51.150;4.470;2023-12-14T07:02:23;16.45;;;6.78;;
56381;SDS011;74506;51.150;4.470;2023-12-14T07:04:48;12.35;;;7.38;;
56381;SDS011;74506;51.150;4.470;2023-12-14T07:07:14;11.57;;;7.18;;
56381;SDS011;74506;51.150;4.470;2023-12-14T07:09:40;11.07;;;6.88;;
56381;SDS011;74506;51.150;4.470;2023-12-14T07:12:06;10.73;;;6.80;;
56381;SDS011;74506;51.150;4.470;2023-12-14T07:14:33;13.27;;;8.35;;
56381;SDS011;74506;51.150;4.470;2023-12-14T07:16:59;11.77;;;8.10;;
56381;SDS011;74506;51.150;4.470;2023-12-14T07:19:24;11.50;;;8.07;;
56381;SDS011;74506;51.150;4.470;2023-12-14T07:21:49;15.10;;;8.30;;
56381;SDS011;74506;51.150;4.470;2023-12-14T07:24:15;12.00;;;8.07;;
56381;SDS011;74506;51.150;4.470;2023-12-14T07:26:41;14.07;;;7.57;;
56381;SDS011;74506;51.150;4.470;2023-12-14T07:29:07;11.50;;;7.18;;
56381;SDS011;74506;51.150;4.470;2023-12-14T07:31:32;11.77;;;7.35;;
56381;SDS011;74506;51.150;4.470;2023-12-14T07:33:59;12.05;;;7.03;;
56381;SDS011;74506;51.150;4.470;2023-12-14T07:36:24;13.95;;;7.60;;
56381;SDS011;74506;51.150;4.470;2023-12-14T07:38:50;16.67;;;7.43;;
56381;SDS011;74506;51.150;4.470;2023-12-14T07:41:15;11.98;;;6.97;;
56381;SDS011;74506;51.150;4.470;2023-12-14T07:43:40;13.68;;;7.30;;
56381;SDS011;74506;51.150;4.470;2023-12-14T07:46:06;13.93;;;7.53;;
56381;SDS011;74506;51.150;4.470;2023-12-14T07:48:31;10.35;;;7.22;;
56381;SDS011;74506;51.150;4.470;2023-12-14T07:50:56;12.52;;;7.30;;
56381;SDS011;74506;51.150;4.470;2023-12-14T07:53:22;10.93;;;6.75;;
56381;SDS011;74506;51.150;4.470;2023-12-14T07:55:48;14.90;;;6.85;;
56381;SDS011;74506;51.150;4.470;2023-12-14T07:58:13;15.90;;;6.97;;
56381;SDS011;74506;51.150;4.470;2023-12-14T08:00:39;13.05;;;7.05;;
56381;SDS011;74506;51.150;4.470;2023-12-14T08:03:05;12.25;;;6.72;;
56381;SDS011;74506;51.150;4.470;2023-12-14T08:05:30;11.93;;;5.88;;
56381;SDS011;74506;51.150;4.470;2023-12-14T08:07:56;13.48;;;7.10;;
56381;SDS011;74506;51.150;4.470;2023-12-14T08:10:22;12.45;;;6.60;;
56381;SDS011;74506;51.150;4.470;2023-12-14T08:12:48;11.98;;;6.35;;
56381;SDS011;74506;51.150;4.470;2023-12-14T08:15:13;12.00;;;5.93;;
56381;SDS011;74506;51.150;4.470;2023-12-14T08:17:39;9.95;;;5.70;;
56381;SDS011;74506;51.150;4.470;2023-12-14T08:20:05;9.45;;;5.93;;
56381;SDS011;74506;51.150;4.470;2023-12-14T08:22:34;10.63;;;6.07;;
56381;SDS011;74506;51.150;4.470;2023-12-14T08:25:00;12.98;;;5.97;;
56381;SDS011;74506;51.150;4.470;2023-12-14T08:27:25;12.10;;;6.60;;
56381;SDS011;74506;51.150;4.470;2023-12-14T08:29:51;15.18;;;6.57;;
56381;SDS011;74506;51.150;4.470;2023-12-14T08:32:17;15.05;;;6.28;;
56381;SDS011;74506;51.150;4.470;2023-12-14T08:34:42;10.77;;;5.78;;
56381;SDS011;74506;51.150;4.470;2023-12-14T08:37:08;8.30;;;5.53;;
56381;SDS011;74506;51.150;4.470;2023-12-14T08:39:34;12.77;;;5.93;;
56381;SDS011;74506;51.150;4.470;2023-12-14T08:42:00;9.73;;;5.60;;
56381;SDS011;74506;51.150;4.470;2023-12-14T08:44:26;12.65;;;5.53;;
56381;SDS011;74506;51.150;4.470;2023-12-14T08:46:51;8.82;;;5.28;;
56381;SDS011;74506;51.150;4.470;2023-12-14T08:49:17;9.02;;;4.82;;
56381;SDS011;74506;51.150;4.470;2023-12-14T08:51:42;9.45;;;4.57;;
56381;SDS011;74506;51.150;4.470;2023-12-14T08:54:08;7.32;;;4.35;;
56381;SDS011;74506;51.150;4.470;2023-12-14T08:56:34;8.60;;;4.35;;
56381;SDS011;74506;51.150;4.470;2023-12-14T08:59:00;10.77;;;4.80;;
56381;SDS011;74506;51.150;4.470;2023-12-14T09:01:29;8.20;;;4.68;;
56381;SDS011;74506;51.150;4.470;2023-12-14T09:03:54;9.52;;;4.60;;
56381;SDS011;74506;51.150;4.470;2023-12-14T09:06:20;11.30;;;4.38;;
56381;SDS011;74506;51.150;4.470;2023-12-14T09:08:46;7.15;;;4.07;;
56381;SDS011;74506;51.150;4.470;2023-12-14T09:11:11;8.77;;;4.15;;
56381;SDS011;74506;51.150;4.470;2023-12-14T09:13:37;8.88;;;4.22;;
56381;SDS011;74506;51.150;4.470;2023-12-14T09:16:03;8.75;;;3.67;;
56381;SDS011;74506;51.150;4.470;2023-12-14T09:18:29;7.75;;;3.13;;
56381;SDS011;74506;51.150;4.470;2023-12-14T09:20:55;7.13;;;3.13;;
56381;SDS011;74506;51.150;4.470;2023-12-14T09:23:21;6.20;;;3.45;;
56381;SDS011;74506;51.150;4.470;2023-12-14T09:25:47;5.90;;;2.97;;
56381;SDS011;74506;51.150;4.470;2023-12-14T09:28:12;5.28;;;3.50;;
56381;SDS011;74506;51.150;4.470;2023-12-14T09:30:38;6.05;;;3.17;;
56381;SDS011;74506;51.150;4.470;2023-12-14T09:33:04;7.07;;;3.22;;
56381;SDS011;74506;51.150;4.470;2023-12-14T09:35:29;6.43;;;2.83;;
56381;SDS011;74506;51.150;4.470;2023-12-14T09:37:56;5.78;;;3.13;;
56381;SDS011;74506;51.150;4.470;2023-12-14T09:40:22;7.68;;;3.50;;
56381;SDS011;74506;51.150;4.470;2023-12-14T09:42:48;6.07;;;3.08;;
56381;SDS011;74506;51.150;4.470;2023-12-14T09:45:14;5.43;;;3.03;;
56381;SDS011;74506;51.150;4.470;2023-12-14T09:47:41;6.78;;;3.40;;
56381;SDS011;74506;51.150;4.470;2023-12-14T09:50:08;10.13;;;3.72;;
56381;SDS011;74506;51.150;4.470;2023-12-14T09:52:34;7.93;;;3.65;;
56381;SDS011;74506;51.150;4.470;2023-12-14T09:54:59;8.60;;;3.92;;
56381;SDS011;74506;51.150;4.470;2023-12-14T09:57:25;5.28;;;3.28;;
56381;SDS011;74506;51.150;4.470;2023-12-14T09:59:52;5.45;;;3.58;;
56381;SDS011;74506;51.150;4.470;2023-12-14T10:02:18;10.30;;;3.90;;
56381;SDS011;74506;51.150;4.470;2023-12-14T10:04:43;10.52;;;3.83;;
56381;SDS011;74506;51.150;4.470;2023-12-14T10:07:09;9.75;;;4.10;;
56381;SDS011;74506;51.150;4.470;2023-12-14T10:09:36;6.88;;;3.95;;
56381;SDS011;74506;51.150;4.470;2023-12-14T10:12:06;8.13;;;4.07;;
56381;SDS011;74506;51.150;4.470;2023-12-14T10:14:32;10.15;;;4.38;;
56381;SDS011;74506;51.150;4.470;2023-12-14T10:16:58;7.35;;;4.75;;
56381;SDS011;74506;51.150;4.470;2023-12-14T10:19:24;9.32;;;4.90;;
56381;SDS011;74506;51.150;4.470;2023-12-14T10:21:50;9.93;;;4.90;;
56381;SDS011;74506;51.150;4.470;2023-12-14T10:24:16;8.70;;;4.85;;
56381;SDS011;74506;51.150;4.470;2023-12-14T10:26:45;11.32;;;4.93;;
56381;SDS011;74506;51.150;4.470;2023-12-14T10:29:11;9.13;;;4.65;;
56381;SDS011;74506;51.150;4.470;2023-12-14T10:31:37;7.93;;;4.57;;
56381;SDS011;74506;51.150;4.470;2023-12-14T10:34:05;11.48;;;5.40;;
56381;SDS011;74506;51.150;4.470;2023-12-14T10:36:31;8.10;;;4.50;;
56381;SDS011;74506;51.150;4.470;2023-12-14T10:38:58;13.68;;;5.50;;
56381;SDS011;74506;51.150;4.470;2023-12-14T10:41:24;9.23;;;4.82;;
56381;SDS011;74506;51.150;4.470;2023-12-14T10:43:50;9.73;;;5.15;;
56381;SDS011;74506;51.150;4.470;2023-12-14T10:46:19;11.43;;;5.45;;
56381;SDS011;74506;51.150;4.470;2023-12-14T10:48:45;12.05;;;5.28;;
56381;SDS011;74506;51.150;4.470;2023-12-14T10:51:12;9.77;;;5.57;;
56381;SDS011;74506;51.150;4.470;2023-12-14T10:53:38;9.20;;;4.97;;
56381;SDS011;74506;51.150;4.470;2023-12-14T10:56:05;12.45;;;5.07;;
56381;SDS011;74506;51.150;4.470;2023-12-14T11:01:20;8.50;;;5.22;;
56381;SDS011;74506;51.150;4.470;2023-12-14T11:03:46;9.98;;;4.93;;
56381;SDS011;74506;51.150;4.470;2023-12-14T11:08:52;9.82;;;4.90;;
56381;SDS011;74506;51.150;4.470;2023-12-14T11:11:18;11.07;;;5.25;;
56381;SDS011;74506;51.150;4.470;2023-12-14T11:13:52;9.20;;;4.25;;
56381;SDS011;74506;51.150;4.470;2023-12-14T11:16:27;7.72;;;4.55;;
56381;SDS011;74506;51.150;4.470;2023-12-14T11:19:38;8.68;;;4.10;;
56381;SDS011;74506;51.150;4.470;2023-12-14T11:21:44;7.75;;;3.70;;
56381;SDS011;74506;51.150;4.470;2023-12-14T11:24:10;9.38;;;3.90;;
56381;SDS011;74506;51.150;4.470;2023-12-14T11:26:36;7.63;;;3.65;;
56381;SDS011;74506;51.150;4.470;2023-12-14T11:29:02;6.60;;;3.67;;
56381;SDS011;74506;51.150;4.470;2023-12-14T11:31:29;8.85;;;4.20;;
56381;SDS011;74506;51.150;4.470;2023-12-14T11:33:55;6.82;;;3.78;;
56381;SDS011;74506;51.150;4.470;2023-12-14T11:36:22;7.88;;;4.47;;
56381;SDS011;74506;51.150;4.470;2023-12-14T11:38:48;8.35;;;3.70;;
56381;SDS011;74506;51.150;4.470;2023-12-14T11:41:13;7.93;;;3.95;;
56381;SDS011;74506;51.150;4.470;2023-12-14T11:43:40;11.75;;;4.18;;
56381;SDS011;74506;51.150;4.470;2023-12-14T11:46:06;9.27;;;4.50;;
56381;SDS011;74506;51.150;4.470;2023-12-14T11:48:32;9.30;;;4.03;;
56381;SDS011;74506;51.150;4.470;2023-12-14T11:50:58;11.00;;;4.05;;
56381;SDS011;74506;51.150;4.470;2023-12-14T11:53:23;7.88;;;3.35;;
56381;SDS011;74506;51.150;4.470;2023-12-14T11:55:52;8.63;;;3.88;;
56381;SDS011;74506;51.150;4.470;2023-12-14T11:58:18;8.13;;;4.03;;
56381;SDS011;74506;51.150;4.470;2023-12-14T12:00:44;7.43;;;3.92;;
56381;SDS011;74506;51.150;4.470;2023-12-14T12:03:12;9.38;;;4.13;;
56381;SDS011;74506;51.150;4.470;2023-12-14T12:05:39;13.07;;;3.50;;
56381;SDS011;74506;51.150;4.470;2023-12-14T12:08:05;14.07;;;3.72;;
56381;SDS011;74506;51.150;4.470;2023-12-14T12:10:31;11.32;;;4.40;;
56381;SDS011;74506;51.150;4.470;2023-12-14T12:13:01;9.93;;;4.20;;
56381;SDS011;74506;51.150;4.470;2023-12-14T12:15:26;8.90;;;3.67;;
56381;SDS011;74506;51.150;4.470;2023-12-14T12:17:52;9.93;;;3.85;;
56381;SDS011;74506;51.150;4.470;2023-12-14T12:20:17;9.32;;;4.28;;
56381;SDS011;74506;51.150;4.470;2023-12-14T12:22:44;8.23;;;4.60;;
56381;SDS011;74506;51.150;4.470;2023-12-14T12:25:09;8.48;;;4.45;;
56381;SDS011;74506;51.150;4.470;2023-12-14T12:27:35;8.95;;;4.07;;
56381;SDS011;74506;51.150;4.470;2023-12-14T12:30:01;13.95;;;4.00;;
56381;SDS011;74506;51.150;4.470;2023-12-14T12:32:27;11.52;;;4.80;;
56381;SDS011;74506;51.150;4.470;2023-12-14T12:34:52;7.53;;;3.97;;
56381;SDS011;74506;51.150;4.470;2023-12-14T12:37:18;8.82;;;4.57;;
56381;SDS011;74506;51.150;4.470;2023-12-14T12:39:44;6.70;;;4.13;;
56381;SDS011;74506;51.150;4.470;2023-12-14T12:42:10;9.80;;;4.18;;
56381;SDS011;74506;51.150;4.470;2023-12-14T12:44:35;7.97;;;3.97;;
56381;SDS011;74506;51.150;4.470;2023-12-14T12:47:01;10.95;;;4.30;;
56381;SDS011;74506;51.150;4.470;2023-12-14T12:49:27;10.93;;;4.45;;
56381;SDS011;74506;51.150;4.470;2023-12-14T12:51:52;9.60;;;5.40;;
56381;SDS011;74506;51.150;4.470;2023-12-14T12:54:18;11.50;;;4.55;;
56381;SDS011;74506;51.150;4.470;2023-12-14T12:56:44;7.13;;;4.20;;
56381;SDS011;74506;51.150;4.470;2023-12-14T12:59:10;8.63;;;4.70;;
56381;SDS011;74506;51.150;4.470;2023-12-14T13:01:35;13.65;;;5.05;;
56381;SDS011;74506;51.150;4.470;2023-12-14T13:04:01;7.80;;;4.28;;
56381;SDS011;74506;51.150;4.470;2023-12-14T13:06:29;12.65;;;4.80;;
56381;SDS011;74506;51.150;4.470;2023-12-14T13:08:55;10.55;;;4.53;;
56381;SDS011;74506;51.150;4.470;2023-12-14T13:11:21;10.88;;;4.80;;
56381;SDS011;74506;51.150;4.470;2023-12-14T13:13:46;10.63;;;4.50;;
56381;SDS011;74506;51.150;4.470;2023-12-14T13:16:13;11.60;;;4.53;;
56381;SDS011;74506;51.150;4.470;2023-12-14T13:18:39;11.60;;;4.57;;
56381;SDS011;74506;51.150;4.470;2023-12-14T13:21:05;10.65;;;4.53;;
56381;SDS011;74506;51.150;4.470;2023-12-14T13:23:31;8.77;;;5.43;;
56381;SDS011;74506;51.150;4.470;2023-12-14T13:25:57;7.97;;;4.50;;
56381;SDS011;74506;51.150;4.470;2023-12-14T13:28:22;8.38;;;4.97;;
56381;SDS011;74506;51.150;4.470;2023-12-14T13:30:48;7.97;;;4.57;;
56381;SDS011;74506;51.150;4.470;2023-12-14T13:33:14;8.45;;;5.50;;
56381;SDS011;74506;51.150;4.470;2023-12-14T13:35:40;10.50;;;5.30;;
56381;SDS011;74506;51.150;4.470;2023-12-14T13:38:05;14.25;;;5.80;;
56381;SDS011;74506;51.150;4.470;2023-12-14T13:40:31;14.50;;;6.18;;
56381;SDS011;74506;51.150;4.470;2023-12-14T13:42:57;9.60;;;5.45;;
56381;SDS011;74506;51.150;4.470;2023-12-14T13:45:25;9.07;;;5.38;;
56381;SDS011;74506;51.150;4.470;2023-12-14T13:47:51;8.68;;;5.30;;
56381;SDS011;74506;51.150;4.470;2023-12-14T13:50:17;8.13;;;4.95;;
56381;SDS011;74506;51.150;4.470;2023-12-14T13:52:42;8.75;;;5.88;;
56381;SDS011;74506;51.150;4.470;2023-12-14T13:55:08;10.07;;;5.25;;
56381;SDS011;74506;51.150;4.470;2023-12-14T13:57:34;13.70;;;5.97;;
56381;SDS011;74506;51.150;4.470;2023-12-14T14:00:00;10.75;;;5.45;;
56381;SDS011;74506;51.150;4.470;2023-12-14T14:02:25;12.57;;;6.57;;
56381;SDS011;74506;51.150;4.470;2023-12-14T14:04:52;11.65;;;5.60;;
56381;SDS011;74506;51.150;4.470;2023-12-14T14:07:18;14.05;;;6.13;;
56381;SDS011;74506;51.150;4.470;2023-12-14T14:09:43;14.05;;;5.15;;
56381;SDS011;74506;51.150;4.470;2023-12-14T14:12:09;20.52;;;6.60;;
56381;SDS011;74506;51.150;4.470;2023-12-14T14:14:34;9.35;;;5.45;;
56381;SDS011;74506;51.150;4.470;2023-12-14T14:17:00;11.35;;;5.63;;
56381;SDS011;74506;51.150;4.470;2023-12-14T14:19:25;8.45;;;4.97;;
56381;SDS011;74506;51.150;4.470;2023-12-14T14:21:51;11.45;;;5.43;;
56381;SDS011;74506;51.150;4.470;2023-12-14T14:24:16;10.57;;;6.00;;
56381;SDS011;74506;51.150;4.470;2023-12-14T14:26:42;12.10;;;5.38;;
56381;SDS011;74506;51.150;4.470;2023-12-14T14:29:07;10.05;;;6.05;;
56381;SDS011;74506;51.150;4.470;2023-12-14T14:31:36;13.80;;;6.00;;
56381;SDS011;74506;51.150;4.470;2023-12-14T14:34:01;11.88;;;5.85;;